Time;durP1;ratioP1;P1;durP2;ratioP2;P2;SDS_P1;SDS_P2;PMS_P1;PMS_P2;Temp;Humidity;BMP_temperature;BMP_pressure;BME280_temperature;BME280_humidity;BME280_pressure;Samples;Min_cycle;Max_cycle;Signal;HPM_P1;HPM_P2
2023/11/01 00:02:06;;;;;;;8.13;3.95;;;;;;;9.33;88.16;97852.84;5074440;28;20043;-84
2023/11/01 00:04:32;;;;;;;5.30;3.50;;;;;;;9.46;87.40;97841.69;5088158;28;20021;-85
2023/11/01 00:06:58;;;;;;;7.13;4.90;;;;;;;9.12;88.07;97853.91;5082719;28;20488;-84
2023/11/01 00:09:26;;;;;;;5.32;3.60;;;;;;;9.44;87.99;97865.13;5071891;28;20051;-84
2023/11/01 00:11:51;;;;;;;4.35;3.95;;;;;;;9.53;86.71;97863.53;5080988;28;20040;-85
2023/11/01 00:14:17;;;;;;;5.93;3.67;;;;;;;9.36;87.60;97852.34;5090863;28;20038;-85
2023/11/01 00:16:43;;;;;;;7.53;4.47;;;;;;;9.36;88.17;97860.34;5085605;28;20035;-84
2023/11/01 00:19:08;;;;;;;9.88;5.18;;;;;;;9.27;88.31;97853.94;5072054;28;20036;-85
2023/11/01 00:21:34;;;;;;;5.50;3.35;;;;;;;9.50;87.80;97858.75;5051662;28;20042;-85
2023/11/01 00:23:59;;;;;;;4.80;4.03;;;;;;;9.25;88.62;97858.72;5083546;28;20024;-84
2023/11/01 00:26:25;;;;;;;8.07;5.57;;;;;;;9.09;88.58;97859.75;5070431;28;20418;-84
2023/11/01 00:28:50;;;;;;;7.07;5.07;;;;;;;9.04;89.44;97860.56;5072198;28;20062;-85
2023/11/01 00:31:16;;;;;;;5.57;4.32;;;;;;;9.03;89.53;97854.41;5081088;28;21010;-85
2023/11/01 00:33:42;;;;;;;7.90;3.83;;;;;;;9.27;88.50;97865.38;5071256;28;20476;-85
2023/11/01 00:36:08;;;;;;;6.93;3.55;;;;;;;8.99;88.70;97834.72;5069404;28;20490;-85
2023/11/01 00:38:36;;;;;;;6.55;4.47;;;;;;;9.16;88.55;97868.28;5068955;28;20024;-85
2023/11/01 00:41:03;;;;;;;8.80;4.20;;;;;;;9.48;88.36;97875.00;5067765;28;20081;-85
2023/11/01 00:43:29;;;;;;;9.27;4.32;;;;;;;9.31;87.84;97866.44;5084059;28;20032;-84
2023/11/01 00:45:55;;;;;;;4.18;3.78;;;;;;;9.53;87.67;97867.00;5081198;28;20033;-85
2023/11/01 00:48:20;;;;;;;5.85;4.40;;;;;;;9.51;87.56;97855.03;5086429;28;20051;-85
2023/11/01 00:50:46;;;;;;;6.55;3.65;;;;;;;9.58;87.17;97861.69;5084101;28;20563;-84
2023/11/01 00:53:12;;;;;;;5.00;3.42;;;;;;;9.62;86.84;97856.63;5083372;28;20031;-85
2023/11/01 00:55:37;;;;;;;3.40;3.08;;;;;;;9.67;87.20;97868.09;5069444;28;20036;-85
2023/11/01 00:58:02;;;;;;;11.70;3.58;;;;;;;9.65;87.55;97862.22;5064681;28;20082;-85
2023/11/01 01:00:28;;;;;;;8.75;3.15;;;;;;;9.54;88.40;97865.16;5068710;28;20122;-85
2023/11/01 01:02:53;;;;;;;4.05;3.58;;;;;;;9.62;87.96;97865.41;5048848;28;20028;-84
2023/11/01 01:05:19;;;;;;;4.15;3.40;;;;;;;9.47;88.13;97851.28;5071018;28;20032;-85
2023/11/01 01:07:45;;;;;;;5.53;2.85;;;;;;;9.59;88.12;97851.81;5069714;28;20036;-84
2023/11/01 01:10:11;;;;;;;4.15;3.13;;;;;;;9.70;87.76;97864.88;5056031;28;20088;-84
2023/11/01 01:12:36;;;;;;;4.40;2.88;;;;;;;9.57;88.86;97859.28;5079014;28;20036;-84
2023/11/01 01:15:02;;;;;;;7.32;3.67;;;;;;;9.45;89.13;97851.56;5080023;28;20028;-85
2023/11/01 01:17:27;;;;;;;6.15;2.97;;;;;;;9.55;88.62;97843.56;5077450;28;20035;-84
2023/11/01 01:19:52;;;;;;;12.43;3.20;;;;;;;9.67;88.23;97856.63;5055576;28;20032;-84
2023/11/01 01:22:18;;;;;;;8.13;3.47;;;;;;;9.67;88.58;97860.09;5078044;28;20036;-84
2023/11/01 01:24:43;;;;;;;4.22;3.38;;;;;;;9.52;88.81;97857.41;5067492;28;20032;-84
2023/11/01 01:27:09;;;;;;;4.05;3.60;;;;;;;9.52;89.32;97857.41;5053490;28;20123;-84
2023/11/01 01:29:34;;;;;;;7.25;3.08;;;;;;;9.76;88.22;97855.03;5055357;28;20063;-85
2023/11/01 01:31:59;;;;;;;4.68;3.00;;;;;;;9.72;88.51;97853.94;5080719;28;20379;-84
2023/11/01 01:34:24;;;;;;;5.45;2.78;;;;;;;9.73;89.14;97861.69;5070304;28;20166;-85
2023/11/01 01:36:50;;;;;;;3.85;3.03;;;;;;;9.67;87.92;97837.97;5070535;28;20065;-85
2023/11/01 01:39:15;;;;;;;5.95;3.13;;;;;;;9.75;88.55;97845.44;5049525;28;20040;-85
2023/11/01 01:41:41;;;;;;;5.45;2.72;;;;;;;9.74;88.30;97833.19;5068557;28;20032;-85
2023/11/01 01:44:06;;;;;;;5.43;2.85;;;;;;;9.63;89.06;97839.59;5078490;28;20067;-85
2023/11/01 01:46:32;;;;;;;5.90;3.55;;;;;;;9.70;89.10;97846.22;5079957;28;20035;-85
2023/11/01 01:48:58;;;;;;;3.08;2.88;;;;;;;9.74;88.77;97839.28;5080707;28;20510;-85
2023/11/01 01:51:26;;;;;;;3.75;2.65;;;;;;;9.64;89.76;97843.84;5080848;28;20495;-85
2023/11/01 01:53:52;;;;;;;2.97;2.22;;;;;;;9.68;88.90;97837.72;5080093;28;20085;-84
2023/11/01 01:56:19;;;;;;;6.80;2.83;;;;;;;9.77;89.22;97837.97;5068821;28;20365;-84
2023/11/01 01:58:45;;;;;;;5.13;2.47;;;;;;;9.62;89.41;97824.66;5079671;28;20028;-85
2023/11/01 02:01:13;;;;;;;3.65;2.55;;;;;;;9.69;89.88;97825.19;5081699;28;20038;-84
2023/11/01 02:03:39;;;;;;;5.38;2.58;;;;;;;9.64;89.45;97818.00;5087743;28;20024;-85
2023/11/01 02:06:05;;;;;;;6.47;2.42;;;;;;;9.73;89.23;97818.25;5087018;28;20038;-84
2023/11/01 02:08:31;;;;;;;5.07;4.00;;;;;;;9.67;88.40;97796.16;5090172;28;20055;-84
2023/11/01 02:10:58;;;;;;;3.42;1.95;;;;;;;9.65;89.00;97808.94;5079252;28;20039;-84
2023/11/01 02:13:23;;;;;;;2.65;2.45;;;;;;;9.82;88.61;97824.66;5070434;28;20488;-84
2023/11/01 02:15:49;;;;;;;4.30;2.40;;;;;;;9.64;89.85;97822.53;5083901;28;20097;-84
2023/11/01 02:18:15;;;;;;;5.18;2.42;;;;;;;9.68;89.22;97807.59;5069436;28;20052;-85
2023/11/01 02:20:44;;;;;;;2.28;2.08;;;;;;;9.55;89.67;97805.47;5091212;28;20110;-85
2023/11/01 02:23:10;;;;;;;4.07;3.05;;;;;;;9.63;89.47;97815.63;5087035;28;20024;-84
2023/11/01 02:25:36;;;;;;;2.72;2.53;;;;;;;9.66;89.56;97812.41;5091585;28;20100;-84
2023/11/01 02:28:03;;;;;;;2.95;2.08;;;;;;;9.68;89.30;97807.59;5063913;28;20115;-85
2023/11/01 02:30:28;;;;;;;3.90;2.17;;;;;;;9.65;89.11;97789.50;5053151;28;20144;-85
2023/11/01 02:32:53;;;;;;;2.80;2.22;;;;;;;9.55;89.58;97784.97;5072218;28;20500;-84
2023/11/01 02:35:19;;;;;;;4.78;3.22;;;;;;;9.56;89.33;97783.91;5086517;28;20361;-84
2023/11/01 02:37:47;;;;;;;5.55;2.65;;;;;;;9.64;89.71;97811.88;5082563;28;20060;-84
2023/11/01 02:40:14;;;;;;;4.45;2.58;;;;;;;9.50;89.87;97800.16;5088541;28;20028;-84
2023/11/01 02:42:44;;;;;;;6.47;3.03;;;;;;;9.49;89.90;97802.03;5090133;28;20479;-84
2023/11/01 02:45:10;;;;;;;3.90;3.35;;;;;;;9.61;89.36;97785.78;5074214;28;20088;-84
2023/11/01 02:47:40;;;;;;;4.85;2.55;;;;;;;9.58;89.40;97778.31;5085686;28;20484;-84
2023/11/01 02:50:08;;;;;;;6.20;2.65;;;;;;;9.48;90.29;97770.34;5089489;28;20032;-84
2023/11/01 02:52:33;;;;;;;7.80;3.45;;;;;;;9.66;90.13;97789.22;5070284;28;20031;-84
2023/11/01 02:55:05;;;;;;;5.65;3.10;;;;;;;9.53;90.14;97772.97;5071074;28;20028;-84
2023/11/01 02:57:33;;;;;;;3.63;2.78;;;;;;;9.62;89.54;97782.03;5087478;28;20383;-84
2023/11/01 03:00:00;;;;;;;3.35;2.90;;;;;;;9.67;89.30;97785.50;5109698;27;20040;-84
2023/11/01 03:02:26;;;;;;;5.88;3.25;;;;;;;9.57;90.03;97756.19;5079890;28;20023;-84
2023/11/01 03:04:51;;;;;;;5.78;2.85;;;;;;;9.64;89.84;97758.59;5055941;28;20028;-84
2023/11/01 03:07:16;;;;;;;4.35;3.17;;;;;;;9.57;89.63;97768.72;5083098;28;20039;-84
2023/11/01 03:09:42;;;;;;;9.88;3.30;;;;;;;9.58;90.04;97767.66;5078930;28;20108;-84
2023/11/01 03:12:08;;;;;;;5.90;3.72;;;;;;;9.69;89.32;97777.22;5072022;28;20035;-84
2023/11/01 03:14:33;;;;;;;7.97;3.95;;;;;;;9.72;90.13;97779.34;5073285;28;20489;-84
2023/11/01 03:16:59;;;;;;;10.23;3.92;;;;;;;9.59;89.68;97756.72;5077410;28;20044;-84
2023/11/01 03:19:24;;;;;;;6.47;3.50;;;;;;;9.52;90.60;97774.06;5069882;28;20027;-84
2023/11/01 03:21:50;;;;;;;8.13;3.53;;;;;;;9.51;90.01;97770.59;5053377;28;20031;-84
2023/11/01 03:24:15;;;;;;;9.35;3.63;;;;;;;9.53;90.57;97787.09;5088402;28;20053;-84
2023/11/01 03:26:41;;;;;;;8.00;3.58;;;;;;;9.56;90.44;97789.25;5068068;28;20055;-85
2023/11/01 03:29:07;;;;;;;7.97;3.92;;;;;;;9.48;91.08;97775.66;5065506;28;20028;-85
2023/11/01 03:31:32;;;;;;;7.78;3.33;;;;;;;9.59;90.18;97782.56;5068874;28;20028;-84
2023/11/01 03:33:58;;;;;;;8.13;3.45;;;;;;;9.59;90.41;97774.56;5068367;28;20063;-85
2023/11/01 03:36:24;;;;;;;6.22;3.30;;;;;;;9.70;90.13;97776.16;5071902;28;20124;-84
2023/11/01 03:38:49;;;;;;;7.35;3.60;;;;;;;9.55;90.75;97773.50;5084737;28;20506;-84
2023/11/01 03:41:15;;;;;;;8.77;3.55;;;;;;;9.57;90.28;97769.50;5054943;28;20054;-84
2023/11/01 03:43:41;;;;;;;4.78;2.80;;;;;;;9.64;90.15;97774.56;5055931;28;20032;-84
2023/11/01 03:46:06;;;;;;;8.95;3.20;;;;;;;9.53;90.38;97765.78;5086123;28;20024;-85
2023/11/01 03:48:32;;;;;;;8.98;3.92;;;;;;;9.62;89.58;97758.84;5065726;28;20488;-84
2023/11/01 03:50:57;;;;;;;7.95;3.60;;;;;;;9.70;90.06;97778.81;5081642;28;20082;-84
2023/11/01 03:53:23;;;;;;;7.05;3.30;;;;;;;9.69;90.33;97777.22;5066903;28;20469;-84
2023/11/01 03:55:48;;;;;;;5.93;3.10;;;;;;;9.66;89.92;97777.75;5082988;28;20043;-84
2023/11/01 03:58:14;;;;;;;11.52;3.40;;;;;;;9.46;90.99;97759.94;5069098;28;21892;-84
2023/11/01 04:00:39;;;;;;;6.72;3.60;;;;;;;9.54;90.67;97770.06;5054754;28;20028;-84
2023/11/01 04:03:04;;;;;;;6.57;3.63;;;;;;;9.68;90.49;97772.97;5055405;28;20077;-84
2023/11/01 04:05:30;;;;;;;6.63;3.45;;;;;;;9.52;91.04;97768.72;5079423;28;20573;-84
2023/11/01 04:07:55;;;;;;;6.80;4.65;;;;;;;9.48;91.63;97773.00;5077183;28;20555;-84
2023/11/01 04:10:21;;;;;;;6.65;4.38;;;;;;;9.49;91.38;97771.91;5071669;28;20556;-84
2023/11/01 04:12:46;;;;;;;6.40;3.22;;;;;;;9.48;91.46;97757.03;5082208;28;20043;-84
2023/11/01 04:15:12;;;;;;;7.07;3.60;;;;;;;9.52;91.25;97772.16;5072299;28;20122;-84
2023/11/01 04:17:40;;;;;;;7.70;3.53;;;;;;;9.34;92.58;97759.41;5054865;28;20035;-84
2023/11/01 04:20:08;;;;;;;6.93;2.85;;;;;;;9.54;90.92;97769.25;5069045;28;20031;-84
2023/11/01 04:22:37;;;;;;;5.30;3.15;;;;;;;9.58;91.13;97749.81;5085932;28;20656;-85
2023/11/01 04:25:06;;;;;;;9.73;4.38;;;;;;;9.42;92.26;97755.41;5080740;28;20035;-84
2023/11/01 04:27:39;;;;;;;7.43;3.70;;;;;;;9.51;91.63;97756.47;5079682;28;20032;-84
2023/11/01 04:30:06;;;;;;;11.85;4.30;;;;;;;9.48;91.51;97765.00;5074867;28;20031;-84
2023/11/01 04:32:32;;;;;;;10.00;3.13;;;;;;;9.56;91.56;97753.81;5083720;28;20035;-84
2023/11/01 04:34:57;;;;;;;12.05;3.72;;;;;;;9.68;90.75;97746.31;5070290;28;20476;-84
2023/11/01 04:37:23;;;;;;;6.00;3.42;;;;;;;9.73;90.35;97738.31;5077362;28;20032;-84
2023/11/01 04:39:49;;;;;;;7.03;3.33;;;;;;;9.65;91.31;97750.31;5088234;28;20490;-84
2023/11/01 04:42:18;;;;;;;6.30;3.28;;;;;;;9.44;91.53;97737.28;5085296;28;20100;-85
2023/11/01 04:44:46;;;;;;;7.88;3.20;;;;;;;9.73;90.95;97746.31;5073581;28;20039;-85
2023/11/01 04:47:12;;;;;;;5.43;3.05;;;;;;;9.66;91.02;97748.44;5066526;28;20043;-85
2023/11/01 04:49:37;;;;;;;6.40;2.70;;;;;;;9.53;91.42;97735.69;5087050;28;20414;-84
2023/11/01 04:52:04;;;;;;;6.60;2.95;;;;;;;9.71;90.50;97745.78;5066733;28;20134;-85
2023/11/01 04:54:30;;;;;;;6.63;2.90;;;;;;;9.54;91.30;97724.78;5076931;28;20069;-85
2023/11/01 04:56:55;;;;;;;9.48;4.03;;;;;;;9.66;90.38;97732.47;5075216;28;20028;-85
2023/11/01 04:59:21;;;;;;;5.85;3.15;;;;;;;9.67;90.59;97724.22;5074596;28;20476;-84
2023/11/01 05:01:47;;;;;;;10.70;3.20;;;;;;;9.83;90.12;97749.75;5070409;28;20544;-84
2023/11/01 05:04:13;;;;;;;9.50;3.60;;;;;;;9.79;90.20;97732.72;5082274;28;20511;-85
2023/11/01 05:06:39;;;;;;;5.43;3.20;;;;;;;9.68;90.71;97739.13;5049882;28;20131;-85
2023/11/01 05:09:05;;;;;;;5.78;2.80;;;;;;;9.80;90.77;97738.84;5070146;28;20365;-85
2023/11/01 05:11:31;;;;;;;8.32;3.25;;;;;;;9.72;90.92;97742.03;5077986;28;20040;-85
2023/11/01 05:13:56;;;;;;;7.70;4.38;;;;;;;9.82;90.84;97744.69;5080806;28;20027;-85
2023/11/01 05:16:22;;;;;;;6.78;2.70;;;;;;;9.81;90.96;97735.09;5088311;28;20102;-85
2023/11/01 05:18:47;;;;;;;9.60;3.05;;;;;;;9.81;89.90;97729.75;5054415;28;20090;-85
2023/11/01 05:21:13;;;;;;;6.00;2.90;;;;;;;9.77;90.42;97720.72;5065744;28;20034;-85
2023/11/01 05:23:38;;;;;;;10.80;3.25;;;;;;;9.70;89.80;97698.88;5080230;28;20036;-85
2023/11/01 05:26:04;;;;;;;7.03;2.75;;;;;;;9.90;90.32;97725.47;5054330;28;20035;-85
2023/11/01 05:28:30;;;;;;;4.15;2.75;;;;;;;9.87;90.53;97718.03;5068913;28;20055;-84
2023/11/01 05:30:55;;;;;;;10.52;2.80;;;;;;;9.85;90.41;97722.06;5075037;28;20443;-85
2023/11/01 05:33:20;;;;;;;4.85;2.28;;;;;;;9.82;91.06;97720.72;5065272;28;20042;-86
2023/11/01 05:35:46;;;;;;;6.22;2.65;;;;;;;9.65;91.28;97702.34;5066942;28;20127;-85
2023/11/01 05:38:12;;;;;;;7.43;2.83;;;;;;;9.80;91.11;97726.31;5064493;28;20437;-85
2023/11/01 05:40:37;;;;;;;6.47;2.67;;;;;;;9.61;91.48;97711.19;5080568;28;20032;-85
2023/11/01 05:43:04;;;;;;;7.32;3.00;;;;;;;9.80;91.40;97720.19;5077518;28;20448;-85
2023/11/01 05:45:30;;;;;;;5.55;2.97;;;;;;;9.77;91.28;97718.88;5065183;28;20040;-85
2023/11/01 05:47:56;;;;;;;8.45;2.83;;;;;;;9.64;91.14;97694.66;5082780;28;20032;-85
2023/11/01 05:50:23;;;;;;;8.35;2.25;;;;;;;9.83;91.14;97714.31;5075207;28;20024;-85
2023/11/01 05:52:50;;;;;;;5.65;2.63;;;;;;;9.83;91.06;97716.97;5071313;28;20062;-85
2023/11/01 05:55:15;;;;;;;6.82;2.78;;;;;;;9.86;91.12;97713.78;5083740;28;20437;-85
2023/11/01 05:57:41;;;;;;;6.03;2.67;;;;;;;9.91;90.92;97715.63;5060237;28;20111;-85
2023/11/01 06:00:10;;;;;;;4.53;2.58;;;;;;;9.80;91.32;97713.00;5086145;28;20027;-85
2023/11/01 06:02:39;;;;;;;5.20;2.28;;;;;;;9.75;91.44;97702.34;5083167;28;20438;-85
2023/11/01 06:05:05;;;;;;;6.15;2.08;;;;;;;9.74;90.71;97703.41;5085732;28;20036;-85
2023/11/01 06:07:31;;;;;;;3.20;2.25;;;;;;;9.68;91.56;97701.81;5065819;28;20028;-85
2023/11/01 06:09:57;;;;;;;4.53;2.30;;;;;;;9.83;91.27;97700.97;5084468;28;20058;-85
2023/11/01 06:12:22;;;;;;;3.38;2.15;;;;;;;9.82;91.62;97715.38;5044703;28;20032;-85
2023/11/01 06:14:48;;;;;;;2.83;2.38;;;;;;;9.80;91.47;97715.66;5054798;28;20025;-85
2023/11/01 06:17:13;;;;;;;4.13;2.13;;;;;;;9.86;90.70;97712.97;5079440;28;20438;-85
2023/11/01 06:19:38;;;;;;;2.67;1.92;;;;;;;9.76;91.83;97709.25;5078422;28;20031;-85
2023/11/01 06:22:04;;;;;;;2.78;2.25;;;;;;;9.81;91.71;97716.44;5064680;28;20028;-85
2023/11/01 06:24:33;;;;;;;3.42;2.40;;;;;;;9.68;93.38;97722.34;5064743;28;20028;-85
2023/11/01 06:26:59;;;;;;;6.60;2.65;;;;;;;9.74;92.87;97713.28;5074359;28;20044;-85
2023/11/01 06:29:25;;;;;;;4.90;2.67;;;;;;;9.76;93.31;97719.16;5085459;28;20020;-84
2023/11/01 06:31:50;;;;;;;5.68;3.05;;;;;;;9.69;93.24;97713.28;5086685;28;20428;-85
2023/11/01 06:34:16;;;;;;;10.60;3.40;;;;;;;9.63;94.23;97725.03;5065564;28;20030;-85
2023/11/01 06:36:44;;;;;;;10.07;4.00;;;;;;;9.35;96.08;97713.06;5091912;28;20430;-85
2023/11/01 06:39:10;;;;;;;3.35;3.00;;;;;;;9.56;94.67;97713.84;5072912;28;20028;-85
2023/11/01 06:41:36;;;;;;;3.50;2.90;;;;;;;9.73;93.25;97714.34;5084377;28;20085;-85
2023/11/01 06:44:01;;;;;;;5.28;3.17;;;;;;;9.90;91.67;97719.34;5084602;28;20021;-85
2023/11/01 06:46:28;;;;;;;3.95;3.15;;;;;;;9.79;92.58;97718.59;5043511;28;20404;-86
2023/11/01 06:48:53;;;;;;;8.38;3.63;;;;;;;9.53;93.55;97685.06;5065320;28;20487;-85
2023/11/01 06:51:19;;;;;;;3.60;2.60;;;;;;;9.85;92.51;97716.72;5084004;28;20053;-84
2023/11/01 06:53:44;;;;;;;5.93;3.33;;;;;;;9.76;92.30;97709.25;5089003;28;20372;-85
2023/11/01 06:56:11;;;;;;;5.90;2.83;;;;;;;9.88;93.02;97708.16;5056516;28;20028;-84
2023/11/01 06:58:36;;;;;;;3.05;2.58;;;;;;;9.90;92.32;97706.03;5072433;28;20035;-85
2023/11/01 07:01:02;;;;;;;6.50;3.55;;;;;;;9.74;93.73;97698.06;5071498;28;20028;-85
2023/11/01 07:03:27;;;;;;;4.03;2.58;;;;;;;9.94;91.96;97699.88;5071835;28;20036;-85
2023/11/01 07:05:52;;;;;;;13.10;4.72;;;;;;;9.48;94.95;97661.13;5069387;28;20072;-85
2023/11/01 07:08:18;;;;;;;7.82;4.68;;;;;;;9.69;95.30;97702.63;5054816;28;20047;-85
2023/11/01 07:10:43;;;;;;;5.93;2.78;;;;;;;9.86;94.20;97705.78;5071395;28;20048;-85
2023/11/01 07:13:08;;;;;;;7.90;5.00;;;;;;;9.75;96.14;97707.69;5069320;28;20127;-85
2023/11/01 07:15:34;;;;;;;7.35;3.58;;;;;;;9.87;94.27;97704.72;5091053;28;20028;-85
2023/11/01 07:17:59;;;;;;;6.82;4.40;;;;;;;9.92;94.10;97702.03;5084102;28;20036;-84
2023/11/01 07:20:24;;;;;;;7.30;3.00;;;;;;;9.99;92.99;97701.72;5072943;28;20369;-85
2023/11/01 07:22:50;;;;;;;7.22;3.65;;;;;;;9.91;94.47;97695.13;5049920;28;20058;-85
2023/11/01 07:25:15;;;;;;;6.75;3.35;;;;;;;10.24;91.22;97697.09;5073036;28;20098;-85
2023/11/01 07:27:41;;;;;;;7.78;3.65;;;;;;;10.15;92.61;97695.31;5070020;28;20518;-85
2023/11/01 07:30:07;;;;;;;8.30;3.20;;;;;;;10.16;92.68;97695.03;5090380;28;20032;-85
2023/11/01 07:32:32;;;;;;;6.63;3.13;;;;;;;10.12;93.23;97693.19;5056773;28;20135;-85
2023/11/01 07:34:57;;;;;;;5.25;2.85;;;;;;;10.13;93.60;97698.25;5090377;28;20788;-85
2023/11/01 07:37:24;;;;;;;7.97;3.25;;;;;;;9.96;95.52;97689.75;5092462;28;20027;-84
2023/11/01 07:39:50;;;;;;;10.63;4.10;;;;;;;9.95;95.03;97684.69;5071772;28;20074;-85
2023/11/01 07:42:15;;;;;;;6.78;3.13;;;;;;;9.92;95.70;97686.03;5080690;28;20059;-85
2023/11/01 07:44:41;;;;;;;7.43;3.60;;;;;;;9.88;95.83;97684.97;5090974;28;20036;-85
2023/11/01 07:47:06;;;;;;;4.35;3.25;;;;;;;9.99;95.13;97685.75;5067502;28;20092;-85
2023/11/01 07:49:32;;;;;;;5.72;2.92;;;;;;;10.17;92.82;97677.16;5055943;28;20082;-85
2023/11/01 07:51:57;;;;;;;8.65;3.17;;;;;;;10.15;94.15;97684.66;5053937;28;20029;-83
2023/11/01 07:54:23;;;;;;;7.30;3.00;;;;;;;10.20;95.29;97676.63;5086177;28;20496;-83
2023/11/01 07:56:48;;;;;;;4.45;3.22;;;;;;;10.16;96.33;97681.69;5087479;28;20468;-84
2023/11/01 07:59:14;;;;;;;4.55;3.20;;;;;;;10.26;95.12;97671.00;5086804;28;20501;-85
2023/11/01 08:01:41;;;;;;;5.95;3.28;;;;;;;10.32;94.98;97672.56;5066112;28;20389;-84
2023/11/01 08:04:07;;;;;;;4.88;3.35;;;;;;;10.34;93.73;97662.41;5083834;28;20031;-85
2023/11/01 08:06:33;;;;;;;6.93;2.78;;;;;;;10.33;94.95;97666.13;5083420;28;20025;-85
2023/11/01 08:08:58;;;;;;;5.75;3.10;;;;;;;10.36;94.95;97678.13;5064798;28;20512;-85
2023/11/01 08:11:24;;;;;;;6.30;3.00;;;;;;;10.21;95.22;97651.53;5085299;28;20039;-84
2023/11/01 08:13:49;;;;;;;3.53;2.60;;;;;;;10.38;94.00;97655.44;5077109;28;20028;-84
2023/11/01 08:16:14;;;;;;;3.53;3.10;;;;;;;10.44;94.30;97672.22;5064213;28;20046;-84
2023/11/01 08:18:40;;;;;;;2.85;2.55;;;;;;;10.43;93.44;97665.28;5096246;28;20372;-85
2023/11/01 08:21:05;;;;;;;2.38;2.17;;;;;;;10.46;93.76;97665.53;5066349;28;20035;-84
2023/11/01 08:23:30;;;;;;;5.15;2.25;;;;;;;10.48;92.47;97666.03;5078283;28;20032;-84
2023/11/01 08:25:56;;;;;;;5.60;2.17;;;;;;;10.54;92.69;97670.28;5069855;28;20117;-84
2023/11/01 08:28:22;;;;;;;4.80;2.15;;;;;;;10.50;92.39;97663.91;5087939;28;20056;-85
2023/11/01 08:30:48;;;;;;;2.40;1.80;;;;;;;10.49;93.09;97670.31;5068868;28;20078;-85
2023/11/01 08:33:13;;;;;;;5.45;1.95;;;;;;;10.50;92.69;97676.47;5052359;28;20544;-85
2023/11/01 08:35:39;;;;;;;4.45;1.98;;;;;;;10.52;92.51;97675.13;5085383;28;20037;-85
2023/11/01 08:38:08;;;;;;;1.83;1.60;;;;;;;10.43;93.53;97676.75;5083979;28;20039;-85
2023/11/01 08:40:34;;;;;;;2.42;2.17;;;;;;;10.44;93.28;97667.66;5057719;28;20119;-85
2023/11/01 08:43:00;;;;;;;3.40;1.60;;;;;;;10.59;93.00;97677.47;5081100;28;20093;-85
2023/11/01 08:45:25;;;;;;;3.95;2.13;;;;;;;10.50;93.51;97677.25;5081735;28;20032;-85
2023/11/01 08:47:50;;;;;;;4.70;1.85;;;;;;;10.55;93.96;97679.88;5051485;28;20442;-84
2023/11/01 08:50:16;;;;;;;3.42;1.95;;;;;;;10.53;93.99;97681.22;5052769;28;20047;-85
2023/11/01 08:52:42;;;;;;;3.33;1.83;;;;;;;10.61;93.52;97669.19;5077368;28;20021;-85
2023/11/01 08:55:13;;;;;;;4.10;1.98;;;;;;;10.35;93.83;97626.66;5081711;28;20043;-85
2023/11/01 08:57:44;;;;;;;4.85;2.67;;;;;;;10.57;94.08;97669.72;5087440;28;20034;-85
2023/11/01 09:00:10;;;;;;;4.95;2.28;;;;;;;10.63;94.09;97664.38;5085865;28;20032;-85
2023/11/01 09:02:35;;;;;;;5.90;2.03;;;;;;;10.62;94.83;97668.09;5063817;28;20123;-85
2023/11/01 09:05:01;;;;;;;4.20;2.47;;;;;;;10.74;94.05;97677.38;5079589;28;20104;-84
2023/11/01 09:07:26;;;;;;;8.70;2.25;;;;;;;10.73;93.69;97658.94;5079407;28;20043;-85
2023/11/01 09:09:53;;;;;;;5.47;2.75;;;;;;;10.75;94.60;97678.13;5083356;28;20032;-85
2023/11/01 09:12:19;;;;;;;5.28;2.70;;;;;;;10.70;95.16;97665.66;5082785;28;20115;-85
2023/11/01 09:14:46;;;;;;;6.47;2.60;;;;;;;10.81;94.89;97666.38;5085626;28;20111;-85
2023/11/01 09:17:12;;;;;;;6.78;2.53;;;;;;;10.85;94.24;97665.53;5083077;28;20379;-85
2023/11/01 09:19:37;;;;;;;5.20;2.72;;;;;;;10.86;95.24;97659.13;5078907;28;20069;-84
2023/11/01 09:22:04;;;;;;;6.53;2.63;;;;;;;10.89;94.67;97657.75;5067427;28;20400;-84
2023/11/01 09:24:29;;;;;;;4.93;2.72;;;;;;;10.95;95.14;97662.78;5077658;28;20043;-84
2023/11/01 09:26:54;;;;;;;9.60;3.97;;;;;;;10.94;95.40;97660.41;5082985;28;20415;-84
2023/11/01 09:29:20;;;;;;;10.20;3.40;;;;;;;10.91;95.55;97653.75;5057921;28;20056;-84
2023/11/01 09:31:45;;;;;;;8.18;2.97;;;;;;;11.06;95.34;97664.28;5071335;28;20031;-84
2023/11/01 09:34:13;;;;;;;7.35;2.72;;;;;;;11.01;94.96;97652.84;5085029;28;20048;-85
2023/11/01 09:36:40;;;;;;;8.13;3.00;;;;;;;11.07;94.83;97657.09;5082862;28;20643;-85
2023/11/01 09:39:06;;;;;;;9.98;3.22;;;;;;;11.07;95.02;97652.53;5089336;28;20020;-85
2023/11/01 09:41:52;;;;;;;9.35;2.95;;;;;;;11.07;94.69;97646.41;5085997;28;20042;-84
2023/11/01 09:44:18;;;;;;;12.43;3.53;;;;;;;11.10;94.49;97648.50;5070588;28;20096;-85
2023/11/01 09:46:45;;;;;;;8.60;2.92;;;;;;;11.26;94.32;97658.78;5078905;28;20080;-85
2023/11/01 09:49:12;;;;;;;8.50;2.80;;;;;;;11.25;93.98;97661.72;5086543;28;20027;-85
2023/11/01 09:51:37;;;;;;;7.30;2.72;;;;;;;11.20;93.79;97675.13;5087505;28;20059;-85
2023/11/01 09:54:08;;;;;;;10.32;3.15;;;;;;;11.27;93.81;97678.25;5085760;28;20097;-85
2023/11/01 09:56:40;;;;;;;8.05;2.67;;;;;;;11.18;93.51;97663.94;5080952;28;20039;-85
2023/11/01 09:59:07;;;;;;;9.82;3.88;;;;;;;11.20;93.86;97659.88;5097994;28;20480;-85
2023/11/01 10:01:33;;;;;;;7.88;3.55;;;;;;;11.22;93.45;97656.94;5081188;28;20025;-85
2023/11/01 10:03:58;;;;;;;6.05;3.33;;;;;;;11.32;93.57;97665.66;5074054;28;20126;-84
2023/11/01 10:06:26;;;;;;;9.55;3.90;;;;;;;11.32;94.10;97665.66;5057794;28;20487;-85
2023/11/01 10:08:52;;;;;;;9.45;2.80;;;;;;;11.33;93.27;97653.09;5079568;28;20042;-85
2023/11/01 10:11:18;;;;;;;10.20;3.38;;;;;;;11.31;93.58;97641.91;5087706;28;20507;-85
2023/11/01 10:13:44;;;;;;;7.88;2.70;;;;;;;11.55;93.24;97647.28;5085137;28;20024;-84
2023/11/01 10:16:11;;;;;;;10.55;3.25;;;;;;;11.49;93.33;97649.19;5088057;28;20407;-85
2023/11/01 10:18:37;;;;;;;5.68;2.60;;;;;;;11.59;92.17;97646.41;5057091;28;20028;-84
2023/11/01 10:21:02;;;;;;;5.30;2.58;;;;;;;11.73;92.21;97655.38;5061319;28;20529;-85
2023/11/01 10:23:28;;;;;;;5.20;2.90;;;;;;;11.82;91.45;97656.34;5086987;28;20062;-84
2023/11/01 10:25:53;;;;;;;5.45;2.67;;;;;;;11.77;91.85;97643.03;5076070;28;20044;-84
2023/11/01 10:28:19;;;;;;;12.30;2.72;;;;;;;11.88;91.54;97652.50;5068250;28;20040;-85
2023/11/01 10:30:46;;;;;;;9.25;2.95;;;;;;;11.77;91.34;97640.34;5052955;28;20024;-85
2023/11/01 10:33:15;;;;;;;11.00;2.65;;;;;;;11.83;90.42;97644.56;5074186;28;20028;-85
2023/11/01 10:35:41;;;;;;;10.25;2.95;;;;;;;11.75;90.88;97639.84;5091121;28;20111;-85
2023/11/01 10:38:07;;;;;;;4.55;2.70;;;;;;;11.83;90.22;97641.91;5070399;28;20127;-84
2023/11/01 10:40:33;;;;;;;8.35;3.03;;;;;;;11.78;90.07;97641.16;5087624;28;20120;-85
2023/11/01 10:43:05;;;;;;;11.15;2.65;;;;;;;11.82;90.04;97636.81;5067214;28;20036;-85
2023/11/01 10:45:31;;;;;;;9.45;2.78;;;;;;;11.82;89.54;97628.81;5059975;28;20020;-85
2023/11/01 10:47:58;;;;;;;12.02;3.17;;;;;;;11.80;89.56;97618.41;5087241;28;20037;-85
2023/11/01 10:50:23;;;;;;;5.60;2.30;;;;;;;11.86;89.39;97630.63;5067851;28;22547;-85
2023/11/01 10:52:49;;;;;;;8.30;3.30;;;;;;;11.80;89.34;97621.06;5067966;28;20123;-85
2023/11/01 10:55:20;;;;;;;6.47;2.90;;;;;;;11.86;89.46;97632.53;5088827;28;20381;-85
2023/11/01 10:57:50;;;;;;;8.63;3.17;;;;;;;11.87;89.30;97629.56;5081454;28;20096;-85
2023/11/01 11:00:26;;;;;;;5.13;2.55;;;;;;;11.90;89.40;97618.25;5077562;28;20085;-85
2023/11/01 11:02:57;;;;;;;10.23;3.28;;;;;;;12.01;89.18;97643.78;5082176;28;20035;-85
2023/11/01 11:05:28;;;;;;;10.18;3.15;;;;;;;11.90;89.42;97631.63;5083655;28;20028;-85
2023/11/01 11:07:56;;;;;;;7.30;2.58;;;;;;;11.86;89.20;97625.28;5073045;28;20119;-85
2023/11/01 11:10:26;;;;;;;4.20;2.70;;;;;;;11.84;89.08;97632.78;5075912;28;20122;-85
2023/11/01 11:13:12;;;;;;;3.47;2.25;;;;;;;11.78;88.90;97644.63;5065822;28;20028;-85
2023/11/01 11:15:47;;;;;;;11.10;3.63;;;;;;;11.72;89.18;97624.38;5083905;28;20020;-84
2023/11/01 11:18:18;;;;;;;8.13;2.67;;;;;;;11.58;89.34;97618.09;5094146;28;20475;-85
2023/11/01 11:20:50;;;;;;;5.50;2.55;;;;;;;11.60;89.40;97605.25;5074285;28;20078;-85
2023/11/01 11:23:17;;;;;;;10.93;3.55;;;;;;;11.46;89.32;97571.47;5085872;28;20115;-85
2023/11/01 11:25:48;;;;;;;10.98;3.00;;;;;;;11.70;89.61;97609.72;5084324;28;20055;-86
2023/11/01 11:28:22;;;;;;;5.95;2.25;;;;;;;11.78;89.62;97606.41;5090469;28;20020;-85
2023/11/01 11:31:06;;;;;;;7.22;2.53;;;;;;;11.79;90.04;97605.31;5084612;28;20050;-85
2023/11/01 11:33:37;;;;;;;7.60;2.97;;;;;;;11.98;89.94;97600.81;5094119;28;20604;-85
2023/11/01 11:36:26;;;;;;;7.90;2.28;;;;;;;11.92;89.71;97589.38;5081035;28;20024;-85